Amo, Colorado
Current Conditions -  °F | °C
As of 6:13 AM on Friday 24 Oct 2014 (Local Time) from KFLY Reporting Station
Clear Clear  
Wind Chill: 51°   Ceiling: Unl
Heat Index: 51°   Visibility: 10mi
Dew Point: 22°   Wind: 7mph
Humidity: 32%   Direction: 330°NNW
Pressure: 30.26"   Gusts: NA
Location:  39.0051°N, 104.503°W
Report Text: KFLY 241213Z AUTO 33006KT 10SM CLR 10/M06 A3026 RMK AO2 T01041058
Loading
Personal Weather Stations






























Interactive Weather Map
Tropical Storm Tracking
New forecast layout! Learn more

10-Day Weather Forecast

Advertisements
Track Severe Weather on mobile